Time;durP1;ratioP1;P1;durP2;ratioP2;P2;SDS_P1;SDS_P2;PMS_P1;PMS_P2;Temp;Humidity;BMP_temperature;BMP_pressure;BME280_temperature;BME280_humidity;BME280_pressure;Samples;Min_cycle;Max_cycle;Signal;HPM_P1;HPM_P2
2022/04/11 00:00:16;;;;;;;3.72;1.85;;;23.70;99.90;;;;;;5052948;28;20029;-75
2022/04/11 00:02:43;;;;;;;1.80;1.10;;;23.80;99.90;;;;;;5051451;28;20500;-75
2022/04/11 00:05:10;;;;;;;3.70;1.70;;;23.80;99.90;;;;;;5052815;28;20032;-74
2022/04/11 00:07:38;;;;;;;2.72;1.33;;;24.00;99.90;;;;;;5051327;28;20031;-74
2022/04/11 00:10:05;;;;;;;3.13;0.90;;;24.00;99.90;;;;;;5051275;28;20033;-73
2022/04/11 00:12:35;;;;;;;2.78;1.05;;;24.00;99.90;;;;;;5052472;28;20021;-72
2022/04/11 00:15:06;;;;;;;2.63;1.10;;;24.00;99.90;;;;;;5052699;28;20017;-75
2022/04/11 00:17:34;;;;;;;3.30;1.10;;;24.10;99.90;;;;;;5052713;28;20390;-74
2022/04/11 00:20:03;;;;;;;3.00;0.98;;;24.20;99.90;;;;;;5051192;28;20051;-74
2022/04/11 00:22:33;;;;;;;3.65;1.20;;;24.10;99.90;;;;;;5051095;28;20083;-73
2022/04/11 00:25:00;;;;;;;3.33;0.90;;;24.30;99.90;;;;;;5052555;28;20021;-73
2022/04/11 00:27:28;;;;;;;4.68;1.15;;;24.30;99.90;;;;;;5051053;28;20493;-73
2022/04/11 00:29:55;;;;;;;2.72;1.20;;;24.40;99.90;;;;;;5052387;28;20032;-75
2022/04/11 00:32:23;;;;;;;3.55;1.27;;;24.40;99.90;;;;;;5050903;28;20025;-74
2022/04/11 00:34:50;;;;;;;3.53;1.20;;;24.50;99.90;;;;;;5051906;28;20024;-74
2022/04/11 00:37:18;;;;;;;2.00;1.02;;;24.60;99.90;;;;;;5050823;28;20362;-72
2022/04/11 00:39:45;;;;;;;2.08;1.00;;;24.60;99.90;;;;;;5052256;28;20045;-73
2022/04/11 00:42:16;;;;;;;2.53;1.02;;;24.50;99.90;;;;;;5052162;28;20029;-72
2022/04/11 00:44:43;;;;;;;3.60;1.08;;;24.50;99.90;;;;;;5050736;28;20167;-73
2022/04/11 00:47:11;;;;;;;3.17;1.30;;;24.60;99.90;;;;;;5051929;28;20068;-73
2022/04/11 00:49:38;;;;;;;2.70;1.20;;;24.80;99.90;;;;;;5051987;28;20021;-75
2022/04/11 00:52:06;;;;;;;2.50;1.60;;;24.80;99.90;;;;;;5050801;28;20021;-73
2022/04/11 00:54:35;;;;;;;1.98;1.13;;;24.90;99.90;;;;;;5050784;28;20514;-73
2022/04/11 00:57:03;;;;;;;3.50;1.52;;;25.10;99.90;;;;;;5050560;28;20033;-73
2022/04/11 00:59:30;;;;;;;3.08;1.40;;;25.10;99.90;;;;;;5050459;28;20511;-75
2022/04/11 01:01:57;;;;;;;3.42;1.45;;;25.20;99.90;;;;;;5050569;28;20025;-73
2022/04/11 01:04:26;;;;;;;3.05;1.45;;;25.20;99.90;;;;;;5051714;28;20032;-72
2022/04/11 01:06:57;;;;;;;3.17;1.40;;;25.10;99.90;;;;;;5051888;28;20502;-74
2022/04/11 01:09:25;;;;;;;2.95;1.33;;;25.20;99.90;;;;;;5050427;28;20071;-72
2022/04/11 01:11:53;;;;;;;4.55;1.38;;;25.20;99.90;;;;;;5050339;28;20066;-73
2022/04/11 01:14:21;;;;;;;4.63;1.65;;;25.30;99.90;;;;;;5051769;28;20079;-72
2022/04/11 01:16:52;;;;;;;3.40;1.70;;;25.50;99.90;;;;;;5050439;28;20112;-72
2022/04/11 01:19:21;;;;;;;2.25;1.17;;;25.50;99.90;;;;;;5051832;28;20025;-72
2022/04/11 01:21:48;;;;;;;2.38;1.17;;;25.60;99.90;;;;;;5051919;28;20043;-72
2022/04/11 01:24:20;;;;;;;2.83;1.30;;;25.60;99.90;;;;;;5050465;28;20056;-72
2022/04/11 01:26:49;;;;;;;2.58;1.35;;;25.60;99.90;;;;;;5051891;28;20096;-73
2022/04/11 01:29:18;;;;;;;4.25;1.45;;;25.80;99.90;;;;;;5050490;28;20124;-72
2022/04/11 01:31:45;;;;;;;4.65;1.35;;;25.90;99.90;;;;;;5051805;28;20044;-72
2022/04/11 01:34:13;;;;;;;4.10;1.73;;;25.90;99.90;;;;;;5051747;28;20071;-72
2022/04/11 01:36:40;;;;;;;3.58;1.77;;;25.90;99.90;;;;;;5051736;28;20427;-72
2022/04/11 01:39:08;;;;;;;3.45;1.92;;;26.00;99.90;;;;;;5051609;28;20532;-72
2022/04/11 01:41:36;;;;;;;4.15;1.80;;;26.30;99.90;;;;;;5050271;28;20079;-72
2022/04/11 01:44:03;;;;;;;2.50;1.40;;;26.30;99.90;;;;;;5050489;28;20022;-72
2022/04/11 01:46:30;;;;;;;3.58;1.77;;;26.30;99.90;;;;;;5051653;28;20370;-73
2022/04/11 01:48:58;;;;;;;3.38;1.75;;;26.30;99.90;;;;;;5053911;28;20524;-72
2022/04/11 01:51:25;;;;;;;3.30;1.70;;;26.30;99.90;;;;;;5055518;28;20017;-72
2022/04/11 01:53:52;;;;;;;4.50;1.90;;;26.30;99.90;;;;;;5054272;28;20096;-72
2022/04/11 01:56:20;;;;;;;3.97;1.88;;;26.40;99.90;;;;;;5055240;28;20024;-72
2022/04/11 01:58:47;;;;;;;2.90;1.67;;;26.80;99.90;;;;;;5053978;28;20025;-72
2022/04/11 02:01:18;;;;;;;3.33;2.00;;;26.90;99.90;;;;;;5053978;28;20478;-72
2022/04/11 02:03:46;;;;;;;2.58;1.63;;;27.00;99.90;;;;;;5053936;28;20036;-73
2022/04/11 02:06:13;;;;;;;3.25;1.73;;;26.90;99.90;;;;;;5055046;28;20362;-72
2022/04/11 02:08:40;;;;;;;2.40;1.63;;;26.90;99.90;;;;;;5053760;28;20029;-73
2022/04/11 02:11:08;;;;;;;3.25;1.70;;;27.00;99.90;;;;;;5053770;28;20060;-72
2022/04/11 02:13:35;;;;;;;2.25;1.50;;;27.00;99.90;;;;;;5055010;28;20021;-72
2022/04/11 02:16:02;;;;;;;2.67;1.63;;;27.10;99.90;;;;;;5053664;28;20087;-72
2022/04/11 02:18:30;;;;;;;3.28;1.90;;;27.30;99.90;;;;;;5055063;28;20028;-72
2022/04/11 02:20:57;;;;;;;2.90;1.83;;;27.40;99.90;;;;;;5054903;28;20117;-71
2022/04/11 02:23:25;;;;;;;3.55;2.30;;;27.40;99.90;;;;;;5054972;28;20028;-71
2022/04/11 02:25:52;;;;;;;3.13;1.80;;;27.40;99.90;;;;;;5054666;28;20033;-73
2022/04/11 02:28:20;;;;;;;3.30;1.45;;;27.50;99.90;;;;;;5054682;28;20056;-71
2022/04/11 02:30:48;;;;;;;3.88;1.63;;;27.80;99.90;;;;;;5053372;28;20113;-71
2022/04/11 02:33:15;;;;;;;2.65;0.80;;;28.00;99.90;;;;;;5054668;28;20032;-72
2022/04/11 02:35:43;;;;;;;1.75;0.98;;;28.00;99.90;;;;;;5054666;28;20021;-71
2022/04/11 02:38:11;;;;;;;2.10;1.10;;;28.00;99.90;;;;;;5054667;28;20131;-72
2022/04/11 02:40:38;;;;;;;1.15;0.70;;;27.90;99.90;;;;;;5054419;28;20067;-72
2022/04/11 02:43:06;;;;;;;3.60;1.50;;;28.20;99.90;;;;;;5054392;28;20382;-72
2022/04/11 02:45:33;;;;;;;2.55;1.10;;;;;;;;;;5054458;28;20029;-72
2022/04/11 02:48:00;;;;;;;3.47;1.35;;;;;;;;;;5052785;28;20509;-72
2022/04/11 02:50:28;;;;;;;2.25;1.17;;;28.20;99.90;;;;;;5052912;28;20029;-71
2022/04/11 02:52:55;;;;;;;3.22;1.30;;;28.50;99.90;;;;;;5054201;28;20043;-73
2022/04/11 02:55:22;;;;;;;1.35;1.05;;;28.50;99.90;;;;;;5054193;28;20024;-71
2022/04/11 02:57:49;;;;;;;2.25;1.15;;;28.50;99.90;;;;;;5052353;28;20124;-71
2022/04/11 03:00:18;;;;;;;3.10;1.40;;;28.50;99.90;;;;;;5052849;28;20448;-71
2022/04/11 03:02:45;;;;;;;2.78;1.40;;;28.50;99.90;;;;;;5054137;28;20021;-70
2022/04/11 03:05:12;;;;;;;1.50;0.90;;;28.50;99.90;;;;;;5052958;28;20490;-69
2022/04/11 03:07:40;;;;;;;1.60;0.90;;;28.60;99.90;;;;;;5052548;28;20025;-70
2022/04/11 03:10:08;;;;;;;1.98;1.00;;;28.80;99.90;;;;;;5053959;28;20032;-69
2022/04/11 03:12:35;;;;;;;2.15;0.77;;;28.80;99.90;;;;;;5053830;28;20021;-69
2022/04/11 03:15:04;;;;;;;2.17;0.60;;;28.80;99.90;;;;;;5052555;28;20028;-69
2022/04/11 03:17:31;;;;;;;1.63;0.82;;;28.80;99.90;;;;;;5053737;28;20021;-70
2022/04/11 03:19:58;;;;;;;1.90;0.80;;;28.90;99.90;;;;;;5053777;28;20078;-69
2022/04/11 03:22:26;;;;;;;3.15;0.85;;;28.70;99.90;;;;;;5053593;28;20492;-69
2022/04/11 03:24:53;;;;;;;1.42;0.50;;;29.00;99.90;;;;;;5052216;28;20060;-69
2022/04/11 03:27:20;;;;;;;2.88;0.77;;;29.10;99.90;;;;;;5052169;28;20504;-70
2022/04/11 03:29:48;;;;;;;0.82;0.60;;;29.30;99.90;;;;;;5052467;28;20021;-70
2022/04/11 03:32:15;;;;;;;2.22;0.85;;;29.30;99.90;;;;;;5052237;28;20017;-70
2022/04/11 03:34:42;;;;;;;2.60;0.65;;;29.60;99.90;;;;;;5053535;28;20024;-70
2022/04/11 03:37:10;;;;;;;1.85;0.57;;;29.50;99.90;;;;;;5053376;28;20024;-72
2022/04/11 03:39:37;;;;;;;1.55;0.80;;;29.30;99.90;;;;;;5052434;28;20047;-71
2022/04/11 03:42:05;;;;;;;1.38;0.55;;;29.60;99.90;;;;;;5053283;28;20111;-71
2022/04/11 03:44:35;;;;;;;1.80;0.55;;;29.60;99.90;;;;;;5053255;28;20032;-71
2022/04/11 03:47:03;;;;;;;0.90;0.70;;;29.60;99.90;;;;;;5053130;28;20053;-72
2022/04/11 03:49:31;;;;;;;1.77;0.50;;;29.70;99.90;;;;;;5053302;28;20444;-71
2022/04/11 03:51:59;;;;;;;0.75;0.40;;;29.50;99.10;;;;;;5052078;28;20127;-71
2022/04/11 03:54:26;;;;;;;2.13;0.55;;;29.50;99.70;;;;;;5051828;28;20460;-71
2022/04/11 03:56:53;;;;;;;1.08;0.43;;;29.60;99.10;;;;;;5053065;28;20105;-71
2022/04/11 03:59:21;;;;;;;1.80;0.60;;;29.60;99.80;;;;;;5053029;28;20421;-71
2022/04/11 04:01:48;;;;;;;1.38;0.60;;;29.70;99.50;;;;;;5052992;28;20079;-71
2022/04/11 04:04:15;;;;;;;0.63;0.52;;;29.90;98.90;;;;;;5052920;28;20023;-71
2022/04/11 04:06:42;;;;;;;1.08;0.60;;;29.90;98.20;;;;;;5052900;28;20461;-72
2022/04/11 04:09:10;;;;;;;1.90;0.70;;;30.00;98.90;;;;;;5051084;28;20124;-71
2022/04/11 04:11:37;;;;;;;1.42;0.60;;;30.30;99.20;;;;;;5052526;28;20048;-72
2022/04/11 04:14:04;;;;;;;1.77;0.60;;;30.40;98.70;;;;;;5051502;28;20477;-72
2022/04/11 04:16:32;;;;;;;0.88;0.50;;;30.60;99.30;;;;;;5051377;28;20025;-72
2022/04/11 04:18:59;;;;;;;1.85;0.68;;;30.50;98.30;;;;;;5052536;28;20036;-72
2022/04/11 04:21:26;;;;;;;3.03;0.90;;;30.60;99.70;;;;;;5052725;28;20111;-71
2022/04/11 04:23:54;;;;;;;1.20;0.70;;;30.60;98.50;;;;;;5052525;28;20017;-71
2022/04/11 04:26:21;;;;;;;5.55;0.80;;;30.70;99.90;;;;;;5052575;28;20028;-71
2022/04/11 04:28:48;;;;;;;2.42;1.00;;;30.10;99.90;;;;;;5052385;28;20029;-72
2022/04/11 04:31:16;;;;;;;4.07;1.10;;;29.30;99.90;;;;;;5052418;28;20021;-72
2022/04/11 04:33:43;;;;;;;2.92;1.25;;;28.40;99.90;;;;;;5051044;28;20371;-73
2022/04/11 04:36:10;;;;;;;3.08;1.00;;;27.90;99.90;;;;;;5051031;28;20021;-72
2022/04/11 04:38:37;;;;;;;4.95;0.93;;;27.80;99.90;;;;;;5052373;28;20512;-72
2022/04/11 04:41:05;;;;;;;4.15;1.10;;;27.90;99.90;;;;;;5052366;28;20021;-72
2022/04/11 04:43:32;;;;;;;5.07;1.35;;;28.20;99.90;;;;;;5052229;28;20091;-72
2022/04/11 04:46:00;;;;;;;2.03;0.90;;;28.10;99.90;;;;;;5051035;28;20024;-72
2022/04/11 04:48:27;;;;;;;3.15;1.30;;;28.20;99.90;;;;;;5052066;28;20053;-72
2022/04/11 04:50:56;;;;;;;2.15;1.15;;;28.20;99.90;;;;;;5052222;28;20020;-73
2022/04/11 04:53:24;;;;;;;3.72;1.02;;;28.30;99.90;;;;;;5050964;28;20111;-73
2022/04/11 04:55:51;;;;;;;2.38;1.10;;;28.30;99.90;;;;;;5052042;28;20028;-72
2022/04/11 04:58:18;;;;;;;2.72;1.00;;;28.40;99.90;;;;;;5052065;28;20056;-72
2022/04/11 05:00:45;;;;;;;2.58;0.70;;;28.60;99.90;;;;;;5052143;28;20027;-72
2022/04/11 05:03:13;;;;;;;3.83;0.93;;;28.60;99.90;;;;;;5050823;28;20028;-72
2022/04/11 05:05:40;;;;;;;2.47;0.82;;;28.10;99.90;;;;;;5051967;28;20099;-72
2022/04/11 05:08:08;;;;;;;6.07;1.25;;;28.20;99.90;;;;;;5052090;28;20456;-72
2022/04/11 05:10:35;;;;;;;1.90;0.65;;;28.10;99.90;;;;;;5050606;28;20421;-71
2022/04/11 05:13:02;;;;;;;0.73;0.63;;;28.10;99.90;;;;;;5052106;28;20087;-72
2022/04/11 05:15:30;;;;;;;2.92;1.00;;;28.20;99.90;;;;;;5051902;28;20017;-72
2022/04/11 05:17:57;;;;;;;4.72;1.25;;;27.90;99.90;;;;;;5051999;28;20025;-72
2022/04/11 05:20:24;;;;;;;3.30;1.30;;;27.70;99.90;;;;;;5051908;28;20027;-73
2022/04/11 05:22:52;;;;;;;3.95;0.98;;;27.60;99.90;;;;;;5055665;28;20534;-72
2022/04/11 05:25:19;;;;;;;2.65;0.82;;;27.70;99.90;;;;;;5055755;28;20029;-72
2022/04/11 05:27:46;;;;;;;2.92;0.80;;;27.60;99.90;;;;;;5054745;28;20029;-72
2022/04/11 05:30:14;;;;;;;1.80;0.70;;;27.20;99.90;;;;;;5055763;28;20059;-72
2022/04/11 05:32:41;;;;;;;2.08;1.00;;;27.00;99.90;;;;;;5055826;28;20062;-71
2022/04/11 05:35:09;;;;;;;2.75;1.10;;;27.00;99.90;;;;;;5054492;28;20029;-72
2022/04/11 05:37:37;;;;;;;1.02;0.65;;;26.80;99.90;;;;;;5055603;28;20025;-72
2022/04/11 05:40:05;;;;;;;3.83;1.10;;;26.80;99.90;;;;;;5055830;28;20025;-72
2022/04/11 05:42:34;;;;;;;2.13;1.00;;;26.60;99.90;;;;;;5055641;28;20067;-72
2022/04/11 05:45:02;;;;;;;4.55;1.20;;;26.60;99.90;;;;;;5055519;28;20374;-72
2022/04/11 05:47:30;;;;;;;4.90;1.13;;;26.50;99.90;;;;;;5055215;28;20130;-71
2022/04/11 05:49:57;;;;;;;2.92;1.00;;;26.60;99.90;;;;;;5054096;28;20051;-72
2022/04/11 05:52:25;;;;;;;2.40;1.23;;;26.30;99.90;;;;;;5055428;28;20028;-72
2022/04/11 05:54:52;;;;;;;2.42;1.10;;;26.20;99.90;;;;;;5054114;28;20500;-73
2022/04/11 05:57:19;;;;;;;3.47;1.00;;;26.20;99.90;;;;;;5053978;28;20099;-75
2022/04/11 05:59:47;;;;;;;3.53;1.50;;;26.20;99.90;;;;;;5055687;28;20128;-74
2022/04/11 06:02:14;;;;;;;3.17;1.05;;;26.30;99.90;;;;;;5053996;28;20029;-76
2022/04/11 06:04:41;;;;;;;7.38;1.70;;;26.20;99.90;;;;;;5055231;28;20029;-75
2022/04/11 06:07:09;;;;;;;3.85;0.90;;;26.00;99.90;;;;;;5055193;28;20020;-73
2022/04/11 06:09:36;;;;;;;2.72;0.82;;;25.90;99.90;;;;;;5055128;28;20071;-74
2022/04/11 06:12:04;;;;;;;3.88;1.15;;;25.80;99.90;;;;;;5055071;28;20417;-73
2022/04/11 06:14:31;;;;;;;3.60;1.15;;;25.70;99.90;;;;;;5055046;28;20049;-74
2022/04/11 06:16:58;;;;;;;3.53;1.20;;;25.50;99.90;;;;;;5054956;28;20023;-73
2022/04/11 06:19:26;;;;;;;2.95;1.40;;;25.40;99.90;;;;;;5053679;28;20112;-74
2022/04/11 06:21:53;;;;;;;3.65;1.42;;;25.30;99.90;;;;;;5053495;28;20084;-73
2022/04/11 06:24:20;;;;;;;5.93;1.60;;;25.10;99.90;;;;;;5054859;28;20104;-73
2022/04/11 06:26:47;;;;;;;6.55;1.33;;;24.90;99.90;;;;;;5054773;28;20108;-73
2022/04/11 06:29:15;;;;;;;4.07;1.10;;;24.80;99.90;;;;;;5053215;28;20033;-74
2022/04/11 06:31:42;;;;;;;3.35;1.10;;;24.70;99.90;;;;;;5054683;28;20077;-73
2022/04/11 06:34:09;;;;;;;4.57;1.20;;;24.50;99.90;;;;;;5052464;28;20052;-73
2022/04/11 06:36:37;;;;;;;2.35;1.00;;;24.40;99.90;;;;;;5053410;28;20112;-73
2022/04/11 06:39:04;;;;;;;5.95;1.25;;;24.30;99.90;;;;;;5054679;28;20052;-75
2022/04/11 06:41:31;;;;;;;4.65;1.80;;;24.30;99.90;;;;;;5054509;28;20024;-74
2022/04/11 06:43:59;;;;;;;4.35;1.90;;;24.20;99.90;;;;;;5054493;28;20024;-73
2022/04/11 06:46:26;;;;;;;7.80;1.60;;;24.10;99.90;;;;;;5054422;28;20477;-72
2022/04/11 06:48:53;;;;;;;6.07;1.63;;;24.00;99.90;;;;;;5054078;28;20111;-72
2022/04/11 06:51:20;;;;;;;8.65;1.90;;;23.90;99.90;;;;;;5054687;28;20017;-73
2022/04/11 06:53:48;;;;;;;7.25;1.70;;;23.80;99.90;;;;;;5053048;28;20394;-75
2022/04/11 06:56:15;;;;;;;7.35;1.80;;;23.80;99.90;;;;;;5054316;28;20465;-72
2022/04/11 06:58:43;;;;;;;5.93;1.80;;;23.70;99.90;;;;;;5054111;28;20029;-74
2022/04/11 07:01:10;;;;;;;4.07;1.58;;;23.70;99.90;;;;;;5052799;28;20428;-76
2022/04/11 07:03:37;;;;;;;9.52;2.17;;;23.60;99.90;;;;;;5052664;28;20082;-74
2022/04/11 07:06:05;;;;;;;6.75;1.70;;;23.60;99.90;;;;;;5054082;28;20029;-74
2022/04/11 07:08:32;;;;;;;6.25;2.03;;;23.50;99.90;;;;;;5053903;28;20452;-74
2022/04/11 07:11:00;;;;;;;8.98;1.95;;;23.40;99.90;;;;;;5053940;28;20017;-74
2022/04/11 07:13:28;;;;;;;8.05;2.00;;;23.40;99.90;;;;;;5053801;28;20021;-73
2022/04/11 07:15:55;;;;;;;6.07;1.98;;;23.40;99.90;;;;;;5053750;28;20389;-73
2022/04/11 07:18:27;;;;;;;7.90;2.30;;;23.30;99.90;;;;;;5053631;28;20049;-74
2022/04/11 07:20:58;;;;;;;9.05;2.13;;;23.30;99.90;;;;;;5053674;28;20104;-74
2022/04/11 07:23:25;;;;;;;8.27;2.30;;;23.10;99.90;;;;;;5053890;28;20021;-74
2022/04/11 07:25:52;;;;;;;5.82;2.08;;;23.10;99.90;;;;;;5052283;28;20071;-74
2022/04/11 07:28:20;;;;;;;10.38;3.20;;;23.10;99.90;;;;;;5053522;28;20017;-73
2022/04/11 07:30:47;;;;;;;12.68;3.35;;;23.00;99.90;;;;;;5053478;28;20021;-74
2022/04/11 07:33:14;;;;;;;10.85;3.70;;;22.90;99.90;;;;;;5052057;28;20389;-73
2022/04/11 07:35:42;;;;;;;14.13;2.85;;;22.90;99.90;;;;;;5053445;28;20025;-74
2022/04/11 07:38:09;;;;;;;11.23;4.03;;;22.90;99.90;;;;;;5053328;28;20461;-73
2022/04/11 07:40:36;;;;;;;11.05;2.88;;;22.80;99.90;;;;;;5053140;28;20391;-74
2022/04/11 07:43:04;;;;;;;12.40;3.50;;;22.90;99.90;;;;;;5053031;28;20025;-73
2022/04/11 07:45:31;;;;;;;12.50;4.35;;;22.80;99.90;;;;;;5053138;28;20033;-73
2022/04/11 07:47:59;;;;;;;13.02;3.60;;;22.80;99.90;;;;;;5052918;28;20095;-74
2022/04/11 07:50:27;;;;;;;13.05;3.38;;;22.90;99.90;;;;;;5053009;28;20386;-74
2022/04/11 07:52:55;;;;;;;11.27;3.70;;;22.90;99.90;;;;;;5053064;28;20393;-74
2022/04/11 07:55:24;;;;;;;15.40;4.63;;;22.90;99.90;;;;;;5051629;28;20029;-74
2022/04/11 07:57:53;;;;;;;15.00;5.00;;;22.90;99.90;;;;;;5051672;28;20017;-73
2022/04/11 08:00:22;;;;;;;27.48;7.20;;;22.80;99.90;;;;;;5053118;28;20025;-75
2022/04/11 08:02:57;;;;;;;18.80;6.20;;;22.70;99.90;;;;;;5052889;28;20029;-75
2022/04/11 08:05:25;;;;;;;18.95;7.22;;;22.70;99.90;;;;;;5051391;28;20025;-75
2022/04/11 08:07:53;;;;;;;20.30;7.68;;;22.70;99.90;;;;;;5051308;28;20048;-76
2022/04/11 08:10:24;;;;;;;22.70;7.68;;;22.70;99.90;;;;;;5052770;28;20110;-75
2022/04/11 08:12:59;;;;;;;20.40;7.70;;;22.60;99.90;;;;;;5052669;28;20497;-75
2022/04/11 08:15:31;;;;;;;21.40;8.45;;;22.70;99.90;;;;;;5051393;28;20108;-77
2022/04/11 08:17:59;;;;;;;26.05;8.93;;;22.60;99.90;;;;;;5052620;28;20036;-75
2022/04/11 08:20:27;;;;;;;24.08;8.32;;;22.50;99.90;;;;;;5052531;28;20079;-77
2022/04/11 08:22:55;;;;;;;24.35;8.13;;;22.50;99.90;;;;;;5051351;28;20389;-75
2022/04/11 08:25:23;;;;;;;26.42;8.32;;;22.40;99.90;;;;;;5052498;28;20021;-75
2022/04/11 08:27:50;;;;;;;19.25;8.05;;;22.50;99.90;;;;;;5052560;28;20028;-75
2022/04/11 08:30:18;;;;;;;24.00;7.90;;;22.50;99.90;;;;;;5052375;28;20021;-76
2022/04/11 08:32:50;;;;;;;23.48;8.02;;;22.40;99.90;;;;;;5052410;28;20386;-75
2022/04/11 08:35:22;;;;;;;17.20;7.30;;;22.50;99.90;;;;;;5052480;28;20021;-76
2022/04/11 08:37:50;;;;;;;24.60;7.18;;;22.40;99.90;;;;;;5052437;28;20457;-76
2022/04/11 08:40:19;;;;;;;22.98;7.05;;;22.40;99.90;;;;;;5034715;28;20143;-77
2022/04/11 08:42:50;;;;;;;18.25;6.35;;;22.30;99.90;;;;;;5051283;28;20025;-76
2022/04/11 08:45:23;;;;;;;21.45;7.07;;;22.30;99.90;;;;;;5052804;28;20028;-80
2022/04/11 08:47:53;;;;;;;26.15;7.72;;;22.20;99.90;;;;;;5034611;28;20089;-75
2022/04/11 08:50:21;;;;;;;23.70;6.68;;;22.30;99.90;;;;;;5050994;28;20060;-76
2022/04/11 08:52:53;;;;;;;26.63;7.13;;;22.20;99.90;;;;;;5050930;28;20033;-77
2022/04/11 08:55:24;;;;;;;21.63;6.38;;;22.30;99.90;;;;;;5051900;28;20082;-76
2022/04/11 08:57:51;;;;;;;19.52;7.18;;;22.30;99.90;;;;;;5052152;28;20025;-76
2022/04/11 09:00:20;;;;;;;22.27;6.15;;;22.30;99.90;;;;;;5051900;28;20103;-77
2022/04/11 09:02:48;;;;;;;24.20;6.90;;;22.30;99.90;;;;;;5052131;28;20508;-77
2022/04/11 09:05:24;;;;;;;20.30;5.88;;;22.40;99.90;;;;;;5050628;28;20029;-75
2022/04/11 09:07:57;;;;;;;23.50;6.15;;;22.40;99.90;;;;;;5052387;28;20061;-74
2022/04/11 09:10:27;;;;;;;21.08;5.70;;;22.40;99.90;;;;;;5050616;28;20108;-74
2022/04/11 09:13:00;;;;;;;22.27;6.73;;;22.40;99.90;;;;;;5050720;28;20039;-75
2022/04/11 09:15:29;;;;;;;23.05;5.85;;;22.40;99.90;;;;;;5050720;28;20021;-77
2022/04/11 09:18:00;;;;;;;16.27;4.88;;;22.20;99.90;;;;;;5051925;28;20478;-74
2022/04/11 09:20:30;;;;;;;16.25;4.88;;;22.20;99.90;;;;;;5051913;28;20017;-74
2022/04/11 09:22:58;;;;;;;17.45;5.03;;;22.20;99.90;;;;;;5051904;28;20483;-73
2022/04/11 09:25:31;;;;;;;23.25;6.35;;;22.20;99.90;;;;;;5051875;28;20029;-73
2022/04/11 09:28:06;;;;;;;19.85;6.20;;;22.20;99.90;;;;;;5051890;28;20155;-73
2022/04/11 09:30:34;;;;;;;19.42;5.15;;;22.20;99.90;;;;;;5050441;28;20393;-74
2022/04/11 09:33:05;;;;;;;22.40;5.38;;;22.20;99.90;;;;;;5051832;28;20025;-74
2022/04/11 09:35:35;;;;;;;;;;;22.10;99.90;;;;;;5052230;28;20021;-74
2022/04/11 09:38:21;;;;;;;18.95;5.35;;;22.20;99.90;;;;;;5051755;28;19913;-74
2022/04/11 09:40:54;;;;;;;16.48;5.07;;;22.20;99.90;;;;;;5051828;28;20025;-73
2022/04/11 09:43:27;;;;;;;17.70;5.53;;;22.10;99.90;;;;;;5051762;28;20028;-72
2022/04/11 09:45:54;;;;;;;19.52;5.43;;;22.10;99.90;;;;;;5051657;28;20017;-75
2022/04/11 09:48:35;;;;;;;21.23;5.78;;;22.10;99.90;;;;;;5051363;28;20505;-75
2022/04/11 09:51:10;;;;;;;17.60;4.72;;;22.10;99.90;;;;;;5051651;28;20408;-73
2022/04/11 09:53:38;;;;;;;18.85;5.00;;;22.10;99.90;;;;;;5051546;28;20025;-72
2022/04/11 09:56:08;;;;;;;21.20;4.60;;;22.00;99.90;;;;;;5051522;28;20021;-73
2022/04/11 09:58:40;;;;;;;21.17;4.97;;;22.00;99.90;;;;;;5051529;28;20099;-72
2022/04/11 10:01:08;;;;;;;20.55;4.60;;;22.10;99.90;;;;;;5051523;28;20025;-73
2022/04/11 10:03:36;;;;;;;19.48;5.10;;;22.00;99.90;;;;;;5050082;28;20396;-73
2022/04/11 10:06:05;;;;;;;14.82;4.72;;;21.90;99.90;;;;;;5050192;28;20420;-73
2022/04/11 10:08:33;;;;;;;19.45;5.65;;;21.90;99.90;;;;;;5052808;28;20025;-72
2022/04/11 10:11:01;;;;;;;20.23;5.78;;;21.80;99.90;;;;;;5055030;28;20019;-73
2022/04/11 10:13:30;;;;;;;20.42;4.88;;;21.70;99.90;;;;;;5053744;28;20492;-74
2022/04/11 10:15:59;;;;;;;18.15;5.35;;;21.70;99.90;;;;;;5054991;28;20025;-74
2022/04/11 10:18:28;;;;;;;18.40;5.03;;;21.60;99.90;;;;;;5054983;28;20532;-73
2022/04/11 10:21:09;;;;;;;19.85;5.75;;;21.60;99.90;;;;;;5054898;28;20021;-73
2022/04/11 10:23:57;;;;;;;19.05;5.30;;;21.50;99.90;;;;;;5053622;28;20428;-74
2022/04/11 10:26:30;;;;;;;19.05;5.65;;;21.50;99.90;;;;;;5053772;28;20075;-73
2022/04/11 10:28:58;;;;;;;25.58;6.93;;;21.50;99.90;;;;;;5054750;28;20394;-73
2022/04/11 10:31:36;;;;;;;18.67;5.40;;;21.40;99.90;;;;;;5054736;28;20036;-73
2022/04/11 10:34:04;;;;;;;23.48;5.65;;;21.40;99.90;;;;;;5053412;28;20500;-72
2022/04/11 10:36:39;;;;;;;23.60;5.65;;;21.40;99.90;;;;;;5053375;28;20017;-73
2022/04/11 10:39:15;;;;;;;21.10;5.53;;;21.30;99.90;;;;;;5053270;28;20393;-72
2022/04/11 10:42:13;;;;;;;19.52;5.10;;;21.30;99.90;;;;;;5053129;28;20036;-72
2022/04/11 10:44:45;;;;;;;19.25;5.32;;;21.30;99.90;;;;;;5053859;28;20033;-73
2022/04/11 10:47:14;;;;;;;21.02;5.85;;;21.30;99.90;;;;;;5054157;28;20033;-73
2022/04/11 10:49:53;;;;;;;20.42;4.95;;;21.30;99.90;;;;;;5054314;28;20035;-73
2022/04/11 10:52:31;;;;;;;23.23;5.05;;;21.30;99.90;;;;;;5053120;28;20059;-72
2022/04/11 10:55:22;;;;;;;17.60;5.20;;;21.30;99.90;;;;;;5054284;28;20024;-73
2022/04/11 10:57:51;;;;;;;19.00;5.20;;;21.30;99.90;;;;;;5053179;28;20500;-72
2022/04/11 11:00:22;;;;;;;24.83;5.40;;;21.30;99.90;;;;;;5054132;28;20079;-73
2022/04/11 11:03:22;;;;;;;15.77;4.63;;;21.30;99.90;;;;;;5054223;28;20025;-73
2022/04/11 11:05:49;;;;;;;17.85;5.35;;;21.30;99.90;;;;;;5054631;28;20040;-72
2022/04/11 11:08:17;;;;;;;20.20;4.90;;;21.30;99.90;;;;;;5053894;28;20033;-72
2022/04/11 11:11:11;;;;;;;22.75;4.72;;;21.30;99.90;;;;;;5053755;28;20033;-72
2022/04/11 11:13:42;;;;;;;19.60;4.82;;;21.30;99.90;;;;;;5052658;28;20024;-72
2022/04/11 11:16:10;;;;;;;22.50;4.90;;;21.40;99.90;;;;;;5053901;28;20021;-73
2022/04/11 11:18:50;;;;;;;18.77;4.57;;;21.40;99.90;;;;;;5052117;28;20497;-72
2022/04/11 11:21:21;;;;;;;22.17;5.30;;;21.40;99.90;;;;;;5052423;28;20032;-72
2022/04/11 11:26:40;;;;;;;14.05;4.18;;;21.30;99.90;;;;;;5053698;28;20550;-72
2022/04/11 11:29:23;;;;;;;24.65;5.85;;;21.30;99.90;;;;;;5052313;28;20036;-72
2022/04/11 11:31:53;;;;;;;22.65;5.57;;;21.30;99.90;;;;;;5052230;28;20078;-73
2022/04/11 11:34:23;;;;;;;16.80;4.03;;;21.30;99.90;;;;;;5052087;28;20112;-73
2022/04/11 11:36:53;;;;;;;17.77;4.50;;;21.30;99.90;;;;;;5053786;28;20098;-73
2022/04/11 11:39:22;;;;;;;15.20;4.70;;;21.20;99.90;;;;;;5053348;28;20476;-73
2022/04/11 11:41:51;;;;;;;17.73;4.85;;;21.20;99.90;;;;;;5053441;28;20397;-73
2022/04/11 11:44:20;;;;;;;20.00;4.35;;;21.20;99.90;;;;;;5053373;28;20024;-73
2022/04/11 11:47:02;;;;;;;20.92;4.43;;;21.20;99.90;;;;;;5053031;28;20031;-73
2022/04/11 11:49:44;;;;;;;19.65;5.10;;;21.20;99.90;;;;;;5051905;28;20047;-74
2022/04/11 11:52:21;;;;;;;20.90;4.80;;;21.20;99.90;;;;;;5051865;28;20025;-73
2022/04/11 11:54:50;;;;;;;18.00;4.32;;;21.20;99.90;;;;;;5053077;28;20021;-73
2022/04/11 11:57:20;;;;;;;23.02;4.80;;;21.20;99.90;;;;;;5051793;28;20024;-73
2022/04/11 11:59:57;;;;;;;18.73;4.57;;;21.20;99.90;;;;;;5053037;28;20017;-72
2022/04/11 12:05:38;;;;;;;16.33;4.00;;;21.10;99.90;;;;;;5053164;28;20036;-73
2022/04/11 12:08:13;;;;;;;18.42;4.60;;;21.10;99.90;;;;;;5052654;28;20370;-72
2022/04/11 12:10:44;;;;;;;22.05;4.43;;;21.00;99.90;;;;;;5052910;28;20025;-72
2022/04/11 12:13:22;;;;;;;21.83;5.25;;;21.00;99.90;;;;;;5052902;28;20445;-73
2022/04/11 12:15:49;;;;;;;21.58;5.25;;;21.00;99.90;;;;;;5052738;28;20021;-73
2022/04/11 12:18:17;;;;;;;21.20;4.60;;;20.90;99.90;;;;;;5052816;28;20147;-73
2022/04/11 12:20:44;;;;;;;23.80;4.72;;;20.80;99.90;;;;;;5052646;28;20096;-73
2022/04/11 12:23:14;;;;;;;21.85;4.78;;;20.80;99.90;;;;;;5051360;28;20100;-73
2022/04/11 12:25:57;;;;;;;24.10;4.55;;;20.70;99.90;;;;;;5052532;28;20040;-73
2022/04/11 12:28:27;;;;;;;16.67;3.90;;;20.70;99.90;;;;;;5051329;28;20028;-73
2022/04/11 12:31:05;;;;;;;21.70;4.57;;;20.70;99.90;;;;;;5050509;28;20025;-74
2022/04/11 12:33:46;;;;;;;15.10;4.20;;;20.70;99.90;;;;;;5051122;28;20059;-73
2022/04/11 12:36:20;;;;;;;21.33;4.20;;;20.60;99.90;;;;;;5052547;28;20434;-72
2022/04/11 12:38:52;;;;;;;16.02;4.68;;;20.60;99.90;;;;;;5050962;28;20021;-74
2022/04/11 12:41:47;;;;;;;21.73;4.63;;;20.60;99.90;;;;;;5051139;28;20021;-74
2022/04/11 12:44:18;;;;;;;22.77;5.05;;;20.60;99.90;;;;;;5052418;28;20502;-74
2022/04/11 12:46:56;;;;;;;19.67;3.78;;;20.50;99.90;;;;;;5052209;28;20540;-73
2022/04/11 12:49:24;;;;;;;19.15;4.53;;;20.50;99.90;;;;;;5052362;28;20028;-74
2022/04/11 12:52:04;;;;;;;18.63;4.57;;;20.50;99.90;;;;;;5050962;28;20049;-74
2022/04/11 12:54:37;;;;;;;19.42;4.22;;;20.50;99.90;;;;;;5052307;28;20029;-73
2022/04/11 12:57:06;;;;;;;20.45;4.65;;;20.50;99.90;;;;;;5050970;28;20115;-74
2022/04/11 12:59:41;;;;;;;19.50;4.32;;;20.50;99.90;;;;;;5050903;28;20035;-74